createdAt,value
2023-02-06T00:01:53.524Z,51.29
2023-02-06T00:04:22.487Z,51.16
2023-02-06T00:06:51.769Z,51.65
2023-02-06T00:09:20.617Z,51.95
2023-02-06T00:11:49.706Z,51.60
2023-02-06T00:14:19.178Z,51.47
2023-02-06T00:16:48.420Z,51.51
2023-02-06T00:19:17.364Z,51.05
2023-02-06T00:21:46.647Z,50.02
2023-02-06T00:24:15.712Z,48.54
2023-02-06T00:26:44.864Z,47.71
2023-02-06T00:29:13.612Z,47.05
2023-02-06T00:31:42.630Z,46.52
2023-02-06T00:34:11.580Z,46.03
2023-02-06T00:36:40.605Z,45.73
2023-02-06T00:39:09.557Z,45.29
2023-02-06T00:41:38.916Z,45.01
2023-02-06T00:44:07.692Z,44.92
2023-02-06T00:46:36.854Z,44.89
2023-02-06T00:49:05.703Z,44.16
2023-02-06T00:51:36.811Z,43.86
2023-02-06T00:54:06.715Z,44.12
2023-02-06T00:56:35.639Z,44.20
2023-02-06T00:59:04.978Z,43.75
2023-02-06T01:01:34.459Z,44.51
2023-02-06T01:04:03.164Z,44.87
2023-02-06T01:06:32.467Z,44.04
2023-02-06T01:09:01.600Z,44.05
2023-02-06T01:11:30.650Z,43.54
2023-02-06T01:14:02.214Z,43.42
2023-02-06T01:16:32.443Z,43.38
2023-02-06T01:19:01.680Z,43.22
2023-02-06T01:21:30.670Z,43.72
2023-02-06T01:23:59.597Z,43.85
2023-02-06T01:26:28.625Z,44.22
2023-02-06T01:28:58.366Z,45.05
2023-02-06T01:31:30.377Z,45.84
2023-02-06T01:34:00.987Z,46.24
2023-02-06T01:36:30.282Z,47.17
2023-02-06T01:38:59.346Z,47.30
2023-02-06T01:41:28.029Z,47.82
2023-02-06T01:44:16.801Z,48.13
2023-02-06T01:46:48.363Z,49.06
2023-02-06T01:49:25.903Z,48.95
2023-02-06T01:52:00.071Z,48.80
2023-02-06T01:54:28.907Z,49.32
2023-02-06T01:57:02.980Z,49.27
2023-02-06T01:59:32.299Z,49.45
2023-02-06T02:02:01.574Z,50.08
2023-02-06T02:04:33.297Z,50.35
2023-02-06T02:07:18.323Z,50.46
2023-02-06T02:09:47.612Z,51.08
2023-02-06T02:12:17.043Z,50.95
2023-02-06T02:14:49.137Z,50.91
2023-02-06T02:17:45.773Z,51.32
2023-02-06T02:20:31.932Z,51.60
2023-02-06T02:23:42.041Z,51.44
2023-02-06T02:26:26.979Z,51.62
2023-02-06T02:29:28.365Z,51.57
2023-02-06T02:32:25.789Z,51.76
2023-02-06T02:35:29.018Z,52.05
2023-02-06T02:38:24.825Z,52.08
2023-02-06T02:41:13.910Z,52.17
2023-02-06T02:43:55.970Z,52.19
2023-02-06T02:46:28.589Z,52.32
2023-02-06T02:49:09.871Z,52.16
2023-02-06T02:51:41.132Z,52.84
2023-02-06T02:54:10.020Z,52.24
2023-02-06T02:56:39.170Z,51.84
2023-02-06T02:59:08.044Z,51.59
2023-02-06T03:01:45.270Z,51.74
2023-02-06T03:04:23.372Z,51.57
2023-02-06T03:07:32.741Z,51.97
2023-02-06T03:10:20.127Z,51.91
2023-02-06T03:13:15.404Z,51.90
2023-02-06T03:15:48.756Z,51.95
2023-02-06T03:18:33.072Z,51.60
2023-02-06T03:21:05.018Z,51.49
2023-02-06T03:23:38.466Z,51.51
2023-02-06T03:26:14.257Z,51.89
2023-02-06T03:28:47.960Z,51.49
2023-02-06T03:31:26.126Z,51.23
2023-02-06T03:34:03.032Z,50.86
2023-02-06T03:36:32.179Z,50.72
2023-02-06T03:39:01.584Z,50.04
2023-02-06T03:41:36.327Z,49.47
2023-02-06T03:44:10.015Z,49.33
2023-02-06T03:46:42.883Z,48.80
2023-02-06T03:49:14.888Z,48.24
2023-02-06T03:51:56.473Z,48.41
2023-02-06T03:54:27.887Z,48.09
2023-02-06T03:57:05.401Z,48.01
2023-02-06T03:59:34.265Z,47.40
2023-02-06T04:02:05.267Z,47.41
2023-02-06T04:04:40.749Z,47.35
2023-02-06T04:07:23.000Z,47.70
2023-02-06T04:09:52.688Z,48.10
2023-02-06T04:12:23.263Z,48.52
2023-02-06T04:14:52.290Z,48.83
2023-02-06T04:17:40.549Z,49.32
2023-02-06T04:20:11.001Z,49.47
2023-02-06T04:22:41.472Z,49.85
2023-02-06T04:25:10.340Z,49.45
2023-02-06T04:27:39.411Z,49.82
2023-02-06T04:30:09.436Z,49.80
2023-02-06T04:32:38.517Z,49.76
2023-02-06T04:35:08.028Z,49.74
2023-02-06T04:37:38.032Z,49.85
2023-02-06T04:40:07.700Z,49.77
2023-02-06T04:42:36.856Z,49.65
2023-02-06T04:45:06.107Z,49.93
2023-02-06T04:47:36.045Z,49.74
2023-02-06T04:50:06.272Z,49.79
2023-02-06T04:52:35.176Z,49.61
2023-02-06T04:55:04.298Z,49.48
2023-02-06T04:57:34.848Z,49.51
2023-02-06T05:00:05.800Z,49.62
2023-02-06T05:02:40.460Z,49.60
2023-02-06T05:05:10.263Z,49.40
2023-02-06T05:07:41.530Z,49.29
2023-02-06T05:10:12.075Z,49.82
2023-02-06T05:12:42.868Z,50.14
2023-02-06T05:15:11.785Z,50.54
2023-02-06T05:17:41.326Z,51.24
2023-02-06T05:20:10.849Z,51.94
2023-02-06T05:22:40.062Z,52.30
2023-02-06T05:25:09.161Z,52.82
2023-02-06T05:27:38.134Z,53.26
2023-02-06T05:30:07.990Z,53.35
2023-02-06T05:32:37.347Z,53.28
2023-02-06T05:35:07.421Z,53.28
2023-02-06T05:37:38.918Z,53.66
2023-02-06T05:40:10.078Z,53.65
2023-02-06T05:42:38.844Z,53.67
2023-02-06T05:45:08.336Z,53.84
2023-02-06T05:47:37.561Z,53.80
2023-02-06T05:50:07.226Z,54.01
2023-02-06T05:52:36.032Z,54.36
2023-02-06T05:55:05.108Z,54.26
2023-02-06T05:57:34.214Z,54.41
2023-02-06T06:00:04.581Z,54.16
2023-02-06T06:02:33.808Z,54.11
2023-02-06T06:05:03.880Z,54.10
2023-02-06T06:07:33.089Z,54.21
2023-02-06T06:10:02.480Z,54.51
2023-02-06T06:12:31.234Z,55.15
2023-02-06T06:15:00.539Z,55.41
2023-02-06T06:17:29.493Z,55.25
2023-02-06T06:19:58.302Z,55.00
2023-02-06T06:22:27.228Z,55.02
2023-02-06T06:24:56.403Z,55.13
2023-02-06T06:27:24.927Z,55.00
2023-02-06T06:29:53.810Z,55.30
2023-02-06T06:32:22.773Z,55.51
2023-02-06T06:34:51.708Z,55.51
2023-02-06T06:37:20.600Z,55.08
2023-02-06T06:39:49.806Z,55.28
2023-02-06T06:42:19.208Z,55.08
2023-02-06T06:44:48.375Z,55.15
2023-02-06T06:47:17.360Z,55.10
2023-02-06T06:49:46.327Z,55.12
2023-02-06T06:52:24.408Z,55.19
2023-02-06T06:54:54.188Z,55.45
2023-02-06T06:57:23.194Z,55.34
2023-02-06T06:59:52.056Z,54.02
2023-02-06T07:02:20.775Z,51.50
2023-02-06T07:04:49.620Z,49.75
2023-02-06T07:07:18.256Z,47.16
2023-02-06T07:09:47.571Z,45.27
2023-02-06T07:12:16.524Z,43.17
2023-02-06T07:14:45.318Z,41.78
2023-02-06T07:17:14.250Z,40.13
2023-02-06T07:19:43.105Z,38.55
2023-02-06T07:22:12.460Z,37.73
2023-02-06T07:24:41.672Z,36.61
2023-02-06T07:27:10.829Z,35.17
2023-02-06T07:29:39.603Z,34.08
2023-02-06T07:32:09.293Z,33.40
2023-02-06T07:34:38.269Z,32.49
2023-02-06T07:37:07.668Z,31.53
2023-02-06T07:39:36.816Z,30.41
2023-02-06T07:42:05.763Z,29.97
2023-02-06T07:44:35.647Z,29.18
2023-02-06T07:47:06.347Z,28.52
2023-02-06T07:49:35.525Z,27.73
2023-02-06T07:52:04.695Z,26.64
2023-02-06T07:54:34.133Z,25.33
2023-02-06T07:57:04.908Z,24.78
2023-02-06T07:59:34.363Z,23.96
2023-02-06T08:02:03.430Z,22.78
2023-02-06T08:04:36.155Z,22.36
2023-02-06T08:07:06.645Z,22.09
2023-02-06T08:09:35.831Z,21.58
2023-02-06T08:12:05.015Z,21.12
2023-02-06T08:14:34.629Z,20.55
2023-02-06T08:17:05.092Z,20.78
2023-02-06T08:19:34.420Z,20.19
2023-02-06T08:22:04.013Z,19.59
2023-02-06T08:24:33.018Z,18.89
2023-02-06T08:27:02.433Z,18.65
2023-02-06T08:29:31.373Z,18.63
2023-02-06T08:32:03.029Z,18.26
2023-02-06T08:34:32.384Z,17.98
2023-02-06T08:37:01.627Z,18.00
2023-02-06T08:39:30.973Z,17.78
2023-02-06T08:42:00.754Z,17.61
2023-02-06T08:44:30.290Z,17.05
2023-02-06T08:47:09.690Z,16.63
2023-02-06T08:49:39.419Z,16.39
2023-02-06T08:52:08.544Z,16.83
2023-02-06T08:54:38.920Z,16.33
2023-02-06T08:57:09.341Z,16.35
2023-02-06T08:59:38.764Z,16.09
2023-02-06T09:02:08.667Z,15.89
2023-02-06T09:04:38.947Z,15.72
2023-02-06T09:07:08.715Z,15.54
2023-02-06T09:09:39.747Z,15.45
2023-02-06T09:12:11.684Z,15.41
2023-02-06T09:14:41.291Z,15.44
2023-02-06T09:17:10.426Z,14.77
2023-02-06T09:19:40.486Z,14.27
2023-02-06T09:22:09.535Z,14.02
2023-02-06T09:24:39.286Z,13.47
2023-02-06T09:27:08.637Z,13.52
2023-02-06T09:29:37.509Z,13.11
2023-02-06T09:32:07.039Z,13.06
2023-02-06T09:34:37.186Z,13.10
2023-02-06T09:37:06.956Z,12.90
2023-02-06T09:39:36.230Z,12.62
2023-02-06T09:42:08.728Z,12.22
2023-02-06T09:44:43.339Z,12.30
2023-02-06T09:47:35.455Z,12.39
2023-02-06T09:50:33.531Z,12.52
2023-02-06T09:53:08.322Z,12.37
2023-02-06T09:55:49.934Z,11.82
2023-02-06T09:58:43.315Z,11.77
2023-02-06T10:01:51.358Z,11.98
2023-02-06T10:04:21.063Z,12.68
2023-02-06T10:07:27.976Z,11.99
2023-02-06T10:10:03.810Z,11.88
2023-02-06T10:13:00.307Z,12.03
2023-02-06T10:15:35.171Z,12.08
2023-02-06T10:18:17.546Z,11.92
2023-02-06T10:21:00.809Z,11.86
2023-02-06T10:23:38.429Z,11.11
2023-02-06T10:26:20.043Z,10.64
2023-02-06T10:29:06.090Z,11.34
2023-02-06T10:32:28.601Z,11.45
2023-02-06T10:35:14.307Z,11.30
2023-02-06T10:37:49.275Z,11.02
2023-02-06T10:41:05.234Z,10.48
2023-02-06T10:43:58.340Z,10.26
2023-02-06T10:46:30.135Z,10.32
2023-02-06T10:49:11.573Z,10.31
2023-02-06T10:51:45.029Z,10.58
2023-02-06T10:54:25.622Z,10.47
2023-02-06T10:56:57.877Z,10.57
2023-02-06T10:59:34.452Z,10.45
2023-02-06T11:02:23.109Z,10.57
2023-02-06T11:05:15.640Z,9.72
2023-02-06T11:07:48.031Z,10.04
2023-02-06T11:10:18.630Z,10.01
2023-02-06T11:13:04.037Z,10.51
2023-02-06T11:15:43.895Z,10.11
2023-02-06T11:18:18.538Z,10.04
2023-02-06T11:20:49.685Z,10.03
2023-02-06T11:23:30.369Z,10.19
2023-02-06T11:26:13.521Z,10.20
2023-02-06T11:28:56.567Z,9.87
2023-02-06T11:31:50.448Z,10.08
2023-02-06T11:34:22.507Z,10.32
2023-02-06T11:37:03.477Z,9.96
2023-02-06T11:39:39.127Z,10.29
2023-02-06T11:42:25.162Z,9.92
2023-02-06T11:44:54.143Z,9.91
2023-02-06T11:47:38.184Z,9.96
2023-02-06T11:50:13.137Z,9.90
2023-02-06T11:52:46.658Z,9.99
2023-02-06T11:55:25.294Z,9.83
2023-02-06T11:58:07.816Z,9.97
2023-02-06T12:00:38.399Z,9.93
2023-02-06T12:03:26.018Z,9.70
2023-02-06T12:05:58.649Z,9.40
2023-02-06T12:08:39.961Z,9.42
2023-02-06T12:11:19.148Z,9.18
2023-02-06T12:13:54.644Z,8.85
2023-02-06T12:16:25.373Z,9.19
2023-02-06T12:18:58.569Z,8.90
2023-02-06T12:21:38.715Z,9.25
2023-02-06T12:24:31.945Z,9.35
2023-02-06T12:27:15.638Z,9.88
2023-02-06T12:30:04.842Z,10.25
2023-02-06T12:32:41.535Z,9.90
2023-02-06T12:35:24.865Z,9.68
2023-02-06T12:38:05.453Z,9.56
2023-02-06T12:40:39.832Z,9.72
2023-02-06T12:43:12.675Z,9.52
2023-02-06T12:45:52.576Z,9.66
2023-02-06T12:48:49.698Z,9.78
2023-02-06T12:51:36.668Z,10.33
2023-02-06T12:54:22.202Z,10.40
2023-02-06T12:57:05.475Z,9.98
2023-02-06T13:00:02.875Z,10.21
2023-02-06T13:02:42.652Z,10.61
2023-02-06T13:05:30.740Z,11.03
2023-02-06T13:08:09.433Z,10.97
2023-02-06T13:10:40.392Z,11.53
2023-02-06T13:13:30.361Z,11.63
2023-02-06T13:16:01.194Z,11.84
2023-02-06T13:18:42.434Z,11.63
2023-02-06T13:21:24.420Z,11.22
2023-02-06T13:24:08.632Z,11.39
2023-02-06T13:27:09.242Z,11.24
2023-02-06T13:29:42.905Z,11.19
2023-02-06T13:32:39.941Z,10.95
2023-02-06T13:38:35.581Z,11.32
2023-02-06T13:41:17.143Z,11.17
2023-02-06T13:43:57.524Z,11.09
2023-02-06T13:46:58.763Z,10.82
2023-02-06T13:49:55.911Z,10.73
2023-02-06T13:52:43.042Z,11.31
2023-02-06T13:55:27.198Z,11.55
2023-02-06T13:58:21.248Z,11.72
2023-02-06T14:00:52.089Z,11.89
2023-02-06T14:03:34.444Z,12.35
2023-02-06T14:06:22.188Z,12.39
2023-02-06T14:09:00.488Z,12.57
2023-02-06T14:12:31.173Z,12.79
2023-02-06T14:15:37.119Z,13.04
2023-02-06T14:18:31.496Z,13.46
2023-02-06T14:21:06.829Z,13.60
2023-02-06T14:24:08.276Z,13.78
2023-02-06T14:27:02.090Z,13.56
2023-02-06T14:29:49.526Z,13.61
2023-02-06T14:32:21.984Z,13.64
2023-02-06T14:35:13.823Z,13.77
2023-02-06T14:37:44.522Z,13.58
2023-02-06T14:40:23.130Z,13.98
2023-02-06T14:42:57.326Z,14.22
2023-02-06T14:45:41.652Z,14.16
2023-02-06T14:48:21.971Z,14.10
2023-02-06T14:50:57.761Z,14.64
2023-02-06T14:53:33.806Z,14.63
2023-02-06T14:56:37.066Z,15.10
2023-02-06T14:59:18.342Z,15.06
2023-02-06T15:01:50.863Z,14.98
2023-02-06T15:04:23.863Z,15.19
2023-02-06T15:07:02.729Z,15.63
2023-02-06T15:09:34.624Z,15.92
2023-02-06T15:12:19.616Z,16.02
2023-02-06T15:14:53.061Z,16.41
2023-02-06T15:17:24.845Z,16.26
2023-02-06T15:19:54.546Z,16.69
2023-02-06T15:22:29.898Z,17.26
2023-02-06T15:25:21.716Z,18.11
2023-02-06T15:28:26.396Z,19.39
2023-02-06T15:30:59.412Z,19.77
2023-02-06T15:33:34.086Z,20.52
2023-02-06T15:36:05.503Z,20.20
2023-02-06T15:38:35.469Z,20.81
2023-02-06T15:41:08.133Z,20.53
2023-02-06T15:43:37.074Z,20.30
2023-02-06T15:46:07.389Z,19.90
2023-02-06T15:48:51.337Z,19.83
2023-02-06T15:51:38.711Z,19.88
2023-02-06T15:54:16.270Z,20.23
2023-02-06T15:56:51.290Z,20.17
2023-02-06T15:59:27.064Z,20.47
2023-02-06T16:01:58.607Z,20.76
2023-02-06T16:04:33.253Z,21.13
2023-02-06T16:07:33.142Z,21.36
2023-02-06T16:10:24.803Z,21.92
2023-02-06T16:12:56.637Z,22.04
2023-02-06T16:15:35.266Z,22.50
2023-02-06T16:18:38.007Z,23.45
2023-02-06T16:21:16.879Z,23.98
2023-02-06T16:24:03.710Z,24.11
2023-02-06T16:26:43.741Z,25.05
2023-02-06T16:29:13.119Z,25.49
2023-02-06T16:31:45.335Z,25.51
2023-02-06T16:34:40.011Z,26.24
2023-02-06T16:37:27.302Z,26.54
2023-02-06T16:39:57.318Z,27.28
2023-02-06T16:42:37.117Z,27.10
2023-02-06T16:45:31.860Z,27.57
2023-02-06T16:48:00.791Z,27.13
2023-02-06T16:50:30.481Z,27.72
2023-02-06T16:53:04.028Z,27.98
2023-02-06T16:55:33.835Z,28.46
2023-02-06T16:58:04.026Z,28.76
2023-02-06T17:00:33.943Z,28.62
2023-02-06T17:03:02.995Z,28.95
2023-02-06T17:05:34.140Z,29.08
2023-02-06T17:08:04.305Z,29.22
2023-02-06T17:10:34.136Z,29.63
2023-02-06T17:13:03.361Z,30.03
2023-02-06T17:15:33.933Z,30.24
2023-02-06T17:18:03.310Z,30.75
2023-02-06T17:20:38.637Z,30.88
2023-02-06T17:23:11.706Z,30.84
2023-02-06T17:25:44.347Z,31.31
2023-02-06T17:28:21.327Z,31.21
2023-02-06T17:30:51.943Z,31.23
2023-02-06T17:33:21.936Z,31.45
2023-02-06T17:35:50.754Z,31.39
2023-02-06T17:38:20.882Z,31.81
2023-02-06T17:40:50.664Z,31.63
2023-02-06T17:43:20.503Z,31.78
2023-02-06T17:45:50.365Z,31.98
2023-02-06T17:48:19.980Z,32.06
2023-02-06T17:50:49.457Z,32.21
2023-02-06T17:53:18.956Z,32.35
2023-02-06T17:55:51.177Z,32.32
2023-02-06T17:58:21.629Z,32.22
2023-02-06T18:00:51.209Z,32.17
2023-02-06T18:03:20.898Z,32.12
2023-02-06T18:06:02.164Z,32.27
2023-02-06T18:08:34.723Z,32.56
2023-02-06T18:11:20.312Z,32.69
2023-02-06T18:13:51.477Z,32.89
2023-02-06T18:16:25.037Z,33.22
2023-02-06T18:18:57.267Z,33.12
2023-02-06T18:21:29.925Z,33.02
2023-02-06T18:24:00.623Z,33.45
2023-02-06T18:26:30.884Z,33.31
2023-02-06T18:29:05.413Z,33.69
2023-02-06T18:31:36.802Z,33.56
2023-02-06T18:34:08.818Z,33.85
2023-02-06T18:36:39.484Z,33.72
2023-02-06T18:39:11.565Z,34.06
2023-02-06T18:42:03.967Z,33.99
2023-02-06T18:44:36.905Z,34.39
2023-02-06T18:47:06.231Z,34.50
2023-02-06T18:49:36.427Z,34.64
2023-02-06T18:52:07.571Z,34.56
2023-02-06T18:54:38.148Z,34.83
2023-02-06T18:57:07.968Z,35.01
2023-02-06T18:59:37.493Z,35.12
2023-02-06T19:02:10.184Z,35.21
2023-02-06T19:04:41.285Z,35.19
2023-02-06T19:07:12.916Z,35.38
2023-02-06T19:09:45.004Z,35.39
2023-02-06T19:12:14.615Z,35.43
2023-02-06T19:14:44.579Z,35.81
2023-02-06T19:17:14.200Z,35.70
2023-02-06T19:19:44.026Z,35.70
2023-02-06T19:22:13.055Z,35.85
2023-02-06T19:24:45.597Z,36.04
2023-02-06T19:27:15.604Z,36.32
2023-02-06T19:29:46.319Z,36.45
2023-02-06T19:32:16.680Z,36.57
2023-02-06T19:34:46.006Z,36.68
2023-02-06T19:37:17.695Z,36.61
2023-02-06T19:39:48.677Z,37.02
2023-02-06T19:42:20.094Z,37.44
2023-02-06T19:44:56.672Z,37.42
2023-02-06T19:47:26.755Z,37.42
2023-02-06T19:49:56.434Z,37.28
2023-02-06T19:52:29.628Z,37.55
2023-02-06T19:55:00.629Z,37.46
2023-02-06T19:57:32.140Z,37.71
2023-02-06T20:00:05.654Z,37.86
2023-02-06T20:02:36.767Z,37.80
2023-02-06T20:05:06.741Z,38.13
2023-02-06T20:07:39.732Z,38.04
2023-02-06T20:10:10.900Z,38.24
2023-02-06T20:12:41.306Z,38.31
2023-02-06T20:15:11.872Z,38.21
2023-02-06T20:17:41.123Z,38.16
2023-02-06T20:20:11.596Z,38.78
2023-02-06T20:22:44.965Z,38.86
2023-02-06T20:25:18.024Z,39.10
2023-02-06T20:27:48.506Z,39.31
2023-02-06T20:30:20.566Z,39.53
2023-02-06T20:32:51.594Z,39.96
2023-02-06T20:35:22.377Z,39.30
2023-02-06T20:37:54.756Z,40.03
2023-02-06T20:40:25.143Z,39.96
2023-02-06T20:42:55.247Z,40.08
2023-02-06T20:45:25.284Z,40.03
2023-02-06T20:47:55.136Z,40.14
2023-02-06T20:50:24.503Z,39.57
2023-02-06T20:52:53.908Z,40.14
2023-02-06T20:55:24.656Z,39.65
2023-02-06T20:57:55.913Z,39.74
2023-02-06T21:00:25.827Z,39.84
2023-02-06T21:02:55.197Z,39.78
2023-02-06T21:05:25.934Z,39.69
2023-02-06T21:07:57.282Z,39.46
2023-02-06T21:10:28.263Z,39.20
2023-02-06T21:12:58.239Z,38.65
2023-02-06T21:15:28.489Z,38.81
2023-02-06T21:17:59.250Z,38.97
2023-02-06T21:20:28.386Z,39.19
2023-02-06T21:22:59.089Z,39.12
2023-02-06T21:25:28.070Z,39.43
2023-02-06T21:27:57.944Z,39.14
2023-02-06T21:30:28.080Z,39.26
2023-02-06T21:32:58.558Z,39.38
2023-02-06T21:35:33.543Z,39.54
2023-02-06T21:38:02.962Z,40.01
2023-02-06T21:40:32.343Z,39.84
2023-02-06T21:43:01.702Z,39.95
2023-02-06T21:45:30.980Z,39.55
2023-02-06T21:48:00.602Z,39.44
2023-02-06T21:50:29.591Z,39.10
2023-02-06T21:52:59.625Z,39.08
2023-02-06T21:55:32.072Z,39.71
2023-02-06T21:58:02.081Z,39.58
2023-02-06T22:00:31.206Z,39.45
2023-02-06T22:03:00.919Z,39.61
2023-02-06T22:05:29.918Z,39.78
2023-02-06T22:07:59.796Z,39.67
2023-02-06T22:10:28.909Z,40.13
2023-02-06T22:12:58.577Z,40.13
2023-02-06T22:15:27.682Z,39.78
2023-02-06T22:17:57.502Z,39.74
2023-02-06T22:20:27.559Z,40.19
2023-02-06T22:22:57.487Z,40.32
2023-02-06T22:25:28.484Z,40.35
2023-02-06T22:27:58.344Z,39.95
2023-02-06T22:30:27.998Z,40.48
2023-02-06T22:32:57.640Z,40.49
2023-02-06T22:35:26.784Z,40.60
2023-02-06T22:37:57.129Z,41.24
2023-02-06T22:40:26.549Z,41.12
2023-02-06T22:42:56.322Z,41.44
2023-02-06T22:45:25.925Z,41.78
2023-02-06T22:47:54.589Z,41.62
2023-02-06T22:50:25.763Z,41.90
2023-02-06T22:53:13.656Z,41.77
2023-02-06T22:56:01.177Z,41.50
2023-02-06T22:58:31.026Z,41.55
2023-02-06T23:01:04.032Z,41.69
2023-02-06T23:03:33.472Z,41.62
2023-02-06T23:06:07.926Z,41.75
2023-02-06T23:08:38.564Z,41.88
2023-02-06T23:11:08.970Z,41.65
2023-02-06T23:13:39.216Z,41.79
2023-02-06T23:16:09.055Z,41.83
2023-02-06T23:18:39.233Z,42.21
2023-02-06T23:21:13.246Z,42.24
2023-02-06T23:23:42.778Z,42.12
2023-02-06T23:26:14.861Z,42.25
2023-02-06T23:28:44.159Z,42.54
2023-02-06T23:31:14.347Z,42.35
2023-02-06T23:33:43.543Z,42.72
2023-02-06T23:36:15.870Z,42.76
2023-02-06T23:38:45.877Z,42.69
2023-02-06T23:41:20.785Z,42.87
2023-02-06T23:43:59.126Z,43.05
2023-02-06T23:46:29.703Z,42.85
2023-02-06T23:48:58.644Z,42.70
2023-02-06T23:51:28.406Z,43.46
2023-02-06T23:53:58.163Z,43.30
2023-02-06T23:56:30.036Z,42.95
2023-02-06T23:59:00.641Z,43.50
